Time;durP1;ratioP1;P1;durP2;ratioP2;P2;SDS_P1;SDS_P2;PMS_P1;PMS_P2;Temp;Humidity;BMP_temperature;BMP_pressure;BME280_temperature;BME280_humidity;BME280_pressure;Samples;Min_cycle;Max_cycle;Signal;HPM_P1;HPM_P2
2023/08/15 00:00:18;;;;;;;13.35;3.85;;;;;;;;;;4972570;28;20051;-90
2023/08/15 00:02:50;;;;;;;8.50;3.75;;;;;;;;;;4989828;28;20046;-90
2023/08/15 00:05:21;;;;;;;7.25;3.95;;;;;;;;;;4972949;28;20318;-90
2023/08/15 00:07:50;;;;;;;11.23;3.78;;;;;;;;;;4990205;28;20051;-90
2023/08/15 00:10:20;;;;;;;8.73;3.80;;;;;;;;;;4992045;28;20055;-91
2023/08/15 00:12:50;;;;;;;9.52;2.97;;;;;;;;;;4976271;28;20065;-87
2023/08/15 00:15:19;;;;;;;8.55;3.95;;;;;;;;;;4991857;28;20074;-88
2023/08/15 00:17:56;;;;;;;12.05;4.97;;;;;;;;;;4991602;28;20055;-87
2023/08/15 00:20:51;;;;;;;9.40;4.90;;;;;;;;;;4974051;28;20061;-87
2023/08/15 00:23:18;;;;;;;9.57;4.13;;;;;;;;;;4989266;28;20042;-88
2023/08/15 00:25:49;;;;;;;10.55;4.30;;;;;;;;;;4975521;28;20093;-89
2023/08/15 00:28:30;;;;;;;13.23;3.90;;;;;;;;;;4975583;28;20078;-89
2023/08/15 00:31:01;;;;;;;8.32;3.67;;;;;;;;;;4974437;28;20098;-89
2023/08/15 00:33:53;;;;;;;7.70;4.28;;;;;;;;;;4962922;29;20332;-90
2023/08/15 00:36:27;;;;;;;11.85;4.05;;;;;;;;;;4957597;29;20089;-89
2023/08/15 00:39:02;;;;;;;8.88;3.88;;;;;;;;;;4956606;29;20051;-88
2023/08/15 00:41:48;;;;;;;12.80;4.32;;;;;;;;;;4955575;29;20054;-88
2023/08/15 00:44:29;;;;;;;9.50;4.65;;;;;;;;;;4956786;29;20065;-88
2023/08/15 00:47:02;;;;;;;8.45;4.00;;;;;;;;;;4958662;29;20043;-88
2023/08/15 00:49:32;;;;;;;10.05;3.90;;;;;;;;;;4973471;29;20039;-88
2023/08/15 00:52:06;;;;;;;8.98;3.75;;;;;;;;;;4955184;29;20054;-88
2023/08/15 00:54:47;;;;;;;11.13;3.90;;;;;;;;;;4950005;29;20051;-88
2023/08/15 00:57:25;;;;;;;11.57;4.47;;;;;;;;;;4955149;29;20175;-88
2023/08/15 01:00:11;;;;;;;9.13;3.80;;;;;;;;;;4953055;29;20050;-88
2023/08/15 01:02:52;;;;;;;10.68;4.15;;;;;;;;;;4935825;29;20044;-88
2023/08/15 01:05:33;;;;;;;12.98;4.30;;;;;;;;;;4955062;29;20055;-88
2023/08/15 01:08:17;;;;;;;;;;;;;;;;;;;;;
2023/08/15 01:10:50;;;;;;;7.47;3.83;;;;;;;;;;4970621;29;20059;-90
2023/08/15 01:13:30;;;;;;;11.75;4.05;;;;;;;;;;4972514;29;20280;-90
2023/08/15 01:16:01;;;;;;;7.25;4.05;;;;;;;;;;4954148;29;20143;-89
2023/08/15 01:18:45;;;;;;;10.98;4.68;;;;;;;;;;4952961;29;20055;-90
2023/08/15 01:21:23;;;;;;;14.15;4.22;;;;;;;;;;4953023;29;20093;-90
2023/08/15 01:23:52;;;;;;;10.25;4.60;;;;;;;;;;4955174;29;20083;-89
2023/08/15 01:26:28;;;;;;;12.45;4.35;;;;;;;;;;4960723;29;20061;-89
2023/08/15 01:29:01;;;;;;;9.40;3.85;;;;;;;;;;4972517;29;20066;-87
2023/08/15 01:31:44;;;;;;;5.40;3.40;;;;;;;;;;4960651;28;20065;-87
2023/08/15 01:34:28;;;;;;;11.82;3.33;;;;;;;;;;4959934;28;20067;-87
2023/08/15 01:37:23;;;;;;;7.13;4.22;;;;;;;;;;4977411;28;20212;-87
2023/08/15 01:39:58;;;;;;;7.60;4.32;;;;;;;;;;4960281;29;20075;-87
2023/08/15 01:42:27;;;;;;;9.73;4.78;;;;;;;;;;4959901;29;20038;-87
2023/08/15 01:44:57;;;;;;;12.50;5.35;;;;;;;;;;4956009;28;20051;-91
2023/08/15 01:47:25;;;;;;;8.93;5.18;;;;;;;;;;4960482;29;20050;-90
2023/08/15 01:50:11;;;;;;;7.93;4.40;;;;;;;;;;4957885;29;20134;-89
2023/08/15 01:53:13;;;;;;;7.68;4.30;;;;;;;;;;4958642;29;20063;-87
2023/08/15 01:55:47;;;;;;;7.78;4.63;;;;;;;;;;4950696;29;20055;-87
2023/08/15 01:58:28;;;;;;;9.55;4.72;;;;;;;;;;4966531;29;20289;-87
2023/08/15 02:01:14;;;;;;;11.35;5.43;;;;;;;;;;4952214;28;20074;-88
2023/08/15 02:04:26;;;;;;;9.00;4.70;;;;;;;;;;4950891;29;20039;-88
2023/08/15 02:07:31;;;;;;;12.38;3.97;;;;;;;;;;4948643;29;20051;-89
2023/08/15 02:10:12;;;;;;;8.68;4.55;;;;;;;;;;4949892;29;20078;-88
2023/08/15 02:12:54;;;;;;;10.90;4.68;;;;;;;;;;4954259;29;20050;-89
2023/08/15 02:15:27;;;;;;;9.60;4.60;;;;;;;;;;4959171;29;20043;-89
2023/08/15 02:18:12;;;;;;;10.73;4.88;;;;;;;;;;4953308;29;20048;-89
2023/08/15 02:20:45;;;;;;;6.88;4.55;;;;;;;;;;4965194;29;20051;-89
2023/08/15 02:23:36;;;;;;;12.07;4.93;;;;;;;;;;4949623;29;20102;-87
2023/08/15 02:26:21;;;;;;;6.95;4.47;;;;;;;;;;4949537;29;20106;-88
2023/08/15 02:29:03;;;;;;;10.23;4.63;;;;;;;;;;4944140;29;20090;-88
2023/08/15 02:31:53;;;;;;;9.60;4.65;;;;;;;;;;4949820;29;20058;-87
2023/08/15 02:37:53;;;;;;;9.02;5.40;;;;;;;;;;4966018;29;20051;-88
2023/08/15 02:40:33;;;;;;;7.65;4.70;;;;;;;;;;4964374;29;20051;-88
2023/08/15 02:43:16;;;;;;;11.02;4.65;;;;;;;;;;4949320;29;20058;-88
2023/08/15 02:45:48;;;;;;;12.05;5.63;;;;;;;;;;4948630;29;20093;-88
2023/08/15 02:48:25;;;;;;;13.07;5.00;;;;;;;;;;4948308;29;20075;-86
2023/08/15 02:51:07;;;;;;;;;;;;;;;;;;4950238;29;20090;-87
2023/08/15 02:53:36;;;;;;;8.07;5.05;;;;;;;;;;4947406;29;19949;-87
2023/08/15 02:56:08;;;;;;;13.05;5.18;;;;;;;;;;4948950;29;20119;-89
2023/08/15 02:58:37;;;;;;;8.07;5.45;;;;;;;;;;4949385;28;20120;-90
2023/08/15 03:01:24;;;;;;;11.50;4.97;;;;;;;;;;4949147;29;20035;-90
2023/08/15 03:03:58;;;;;;;16.23;5.32;;;;;;;;;;4949951;29;20050;-90
2023/08/15 03:06:28;;;;;;;16.17;5.75;;;;;;;;;;4950859;28;20123;-90
2023/08/15 03:09:09;;;;;;;8.98;4.72;;;;;;;;;;4949128;29;20055;-90
2023/08/15 03:11:38;;;;;;;10.65;5.38;;;;;;;;;;4950119;28;20058;-90
2023/08/15 03:14:08;;;;;;;9.40;5.00;;;;;;;;;;4970236;28;20043;-90
2023/08/15 03:16:38;;;;;;;11.15;4.53;;;;;;;;;;4971595;29;20063;-90
2023/08/15 03:19:06;;;;;;;14.35;6.15;;;;;;;;;;4953946;29;20062;-90
2023/08/15 03:21:45;;;;;;;7.72;5.25;;;;;;;;;;4971806;29;20061;-89
2023/08/15 03:24:15;;;;;;;11.38;5.18;;;;;;;;;;4954230;29;20062;-89
2023/08/15 03:26:46;;;;;;;10.25;4.68;;;;;;;;;;4954138;29;20062;-90
2023/08/15 03:29:20;;;;;;;12.07;5.07;;;;;;;;;;4956071;28;20054;-88
2023/08/15 03:32:06;;;;;;;8.75;5.53;;;;;;;;;;5226795;23;20257;-87
2023/08/15 03:34:54;;;;;;;16.60;5.30;;;;;;;;;;4976896;28;20054;-88
2023/08/15 03:37:43;;;;;;;11.10;5.68;;;;;;;;;;4978039;28;20039;-90
2023/08/15 04:31:35;;;;;;;10.18;6.00;;;;;;;;;;4997545;28;20059;-89
2023/08/15 04:58:23;;;;;;;14.05;6.40;;;;;;;;;;5790536;23;20058;-90
2023/08/15 05:26:54;;;;;;;11.50;6.95;;;;;;;;;;5546849;23;20058;-87
2023/08/15 21:05:32;;;;;;;5.50;1.98;;;;;;;;;;5033829;23;20040;-90
2023/08/15 21:08:03;;;;;;;10.48;1.90;;;;;;;;;;4930453;29;20060;-90
2023/08/15 21:10:50;;;;;;;6.88;2.15;;;;;;;;;;4929120;29;20363;-91
2023/08/15 21:13:33;;;;;;;6.68;1.92;;;;;;;;;;4912068;29;20072;-87
2023/08/15 21:16:27;;;;;;;6.57;2.28;;;;;;;;;;4904873;29;20086;-87
2023/08/15 21:19:16;;;;;;;7.03;2.30;;;;;;;;;;4913221;29;20048;-87
2023/08/15 21:22:11;;;;;;;7.68;2.70;;;;;;;;;;4927038;29;20063;-87
2023/08/15 21:24:42;;;;;;;3.92;1.85;;;;;;;;;;4912536;29;20083;-88
2023/08/15 21:27:29;;;;;;;5.05;2.13;;;;;;;;;;4913627;29;20052;-89
2023/08/15 21:30:18;;;;;;;7.00;1.95;;;;;;;;;;4918084;29;20111;-86
2023/08/15 21:38:13;;;;;;;9.32;2.40;;;;;;;;;;5423795;23;20056;-87
2023/08/15 21:40:46;;;;;;;7.30;2.22;;;;;;;;;;4954295;28;20036;-87
2023/08/15 21:43:38;;;;;;;7.38;2.25;;;;;;;;;;4936547;29;20071;-86
2023/08/15 21:46:35;;;;;;;8.60;2.33;;;;;;;;;;4947344;29;20118;-87
2023/08/15 21:49:14;;;;;;;5.90;1.98;;;;;;;;;;4934613;29;20052;-87
2023/08/15 21:51:49;;;;;;;4.03;1.73;;;;;;;;;;4933788;29;20080;-87
2023/08/15 21:54:30;;;;;;;8.00;2.13;;;;;;;;;;4933541;29;20268;-87
2023/08/15 21:57:15;;;;;;;3.25;1.83;;;;;;;;;;4935579;29;20052;-88
2023/08/15 21:59:47;;;;;;;8.20;2.55;;;;;;;;;;4933796;29;20051;-88
2023/08/15 22:02:38;;;;;;;11.60;2.58;;;;;;;;;;4933241;29;20064;-88
2023/08/15 22:05:20;;;;;;;7.05;2.65;;;;;;;;;;4934776;29;20066;-87
2023/08/15 22:07:58;;;;;;;8.43;3.47;;;;;;;;;;4931203;29;20035;-87
2023/08/15 22:10:48;;;;;;;8.43;4.22;;;;;;;;;;4931331;29;20059;-87
2023/08/15 22:13:35;;;;;;;8.23;3.15;;;;;;;;;;4931799;29;20051;-87
2023/08/15 22:16:15;;;;;;;6.65;3.00;;;;;;;;;;4933111;29;20043;-87
2023/08/15 22:19:06;;;;;;;8.15;2.85;;;;;;;;;;4944814;29;20081;-88
2023/08/15 22:21:40;;;;;;;7.00;2.13;;;;;;;;;;4935233;29;20102;-86
2023/08/15 22:24:24;;;;;;;9.45;2.33;;;;;;;;;;4933138;29;20139;-88
2023/08/15 22:26:56;;;;;;;5.88;2.03;;;;;;;;;;4931586;29;20439;-87
2023/08/15 22:29:37;;;;;;;3.25;2.00;;;;;;;;;;4921094;29;20061;-90
2023/08/15 22:32:19;;;;;;;6.15;1.88;;;;;;;;;;4934369;29;20048;-91
2023/08/15 22:35:05;;;;;;;6.57;1.77;;;;;;;;;;4948388;29;20055;-91
2023/08/15 22:37:35;;;;;;;4.03;1.70;;;;;;;;;;4932326;29;20099;-91
2023/08/15 22:40:14;;;;;;;6.25;2.20;;;;;;;;;;4931212;29;20055;-91
2023/08/15 22:42:55;;;;;;;6.90;2.00;;;;;;;;;;4934396;29;20052;-90
2023/08/15 22:45:31;;;;;;;4.43;2.03;;;;;;;;;;4949886;29;20159;-90
2023/08/15 22:47:59;;;;;;;15.70;2.45;;;;;;;;;;4947552;29;20051;-87
2023/08/15 22:50:44;;;;;;;9.10;2.15;;;;;;;;;;4932200;29;20114;-87
2023/08/15 22:53:20;;;;;;;5.13;1.67;;;;;;;;;;4934208;29;20052;-86
2023/08/15 22:55:49;;;;;;;;;;;;;;;;;;4928947;29;20055;-86
2023/08/15 22:58:20;;;;;;;6.32;2.30;;;;;;;;;;4927700;29;19933;-86
2023/08/15 23:00:55;;;;;;;6.57;2.10;;;;;;;;;;4928743;29;20090;-87
2023/08/15 23:03:36;;;;;;;10.85;2.38;;;;;;;;;;4928173;29;20043;-87
2023/08/15 23:06:23;;;;;;;9.50;1.60;;;;;;;;;;4930054;29;20047;-88
2023/08/15 23:19:47;;;;;;;6.22;2.22;;;;;;;;;;4944232;29;20059;-87
2023/08/15 23:22:21;;;;;;;6.18;1.90;;;;;;;;;;4929136;29;20118;-87
2023/08/15 23:25:06;;;;;;;7.85;2.35;;;;;;;;;;4929568;29;20052;-87
2023/08/15 23:27:59;;;;;;;4.50;2.15;;;;;;;;;;4931145;29;20102;-87
2023/08/15 23:30:43;;;;;;;9.73;2.47;;;;;;;;;;4926363;29;20075;-88
2023/08/15 23:33:30;;;;;;;11.52;2.65;;;;;;;;;;4925113;29;20059;-88
2023/08/15 23:36:24;;;;;;;8.10;2.58;;;;;;;;;;4931451;29;20067;-88
2023/08/15 23:39:11;;;;;;;5.90;2.58;;;;;;;;;;4929850;29;20055;-88
2023/08/15 23:42:02;;;;;;;9.38;3.05;;;;;;;;;;4946625;29;20047;-87
2023/08/15 23:44:33;;;;;;;7.97;2.90;;;;;;;;;;4929892;29;20348;-87
2023/08/15 23:47:05;;;;;;;5.85;2.15;;;;;;;;;;4930611;29;20063;-86
2023/08/15 23:59:41;;;;;;;15.57;3.45;;;;;;;;;;4947356;29;20036;-87
